Time;durP1;ratioP1;P1;durP2;ratioP2;P2;SDS_P1;SDS_P2;PMS_P1;PMS_P2;Temp;Humidity;BMP_temperature;BMP_pressure;BME280_temperature;BME280_humidity;BME280_pressure;Samples;Min_cycle;Max_cycle;Signal;HPM_P1;HPM_P2
2021/01/28 00:00:09;;;;;;;22.25;19.65;;;7.00;99.90;6.70;99682.00;;;;340028;28;87217;-86
2021/01/28 00:00:26;;;;;;;23.60;19.80;;;7.00;99.90;6.80;99689.00;;;;341139;28;89039;-86
2021/01/28 00:00:39;;;;;;;22.30;19.17;;;6.90;99.90;6.80;99674.00;;;;341479;28;84924;-86
2021/01/28 00:00:51;;;;;;;21.70;18.30;;;7.00;99.90;6.90;99683.00;;;;339679;28;93241;-86
2021/01/28 00:01:04;;;;;;;21.45;17.85;;;7.00;99.90;7.00;99689.00;;;;341526;28;85220;-86
2021/01/28 00:01:16;;;;;;;22.90;18.02;;;7.00;99.90;6.90;99688.00;;;;340991;28;92704;-87
2021/01/28 00:01:27;;;;;;;22.30;18.65;;;7.00;99.90;6.90;99677.00;;;;339711;28;84860;-86
2021/01/28 00:01:39;;;;;;;21.65;18.98;;;7.00;99.90;6.80;99694.00;;;;343909;28;89691;-85
2021/01/28 00:01:51;;;;;;;20.67;18.50;;;7.00;99.90;6.80;99686.00;;;;341422;28;84845;-86
2021/01/28 00:02:02;;;;;;;21.05;18.80;;;7.00;99.90;6.70;99691.00;;;;342393;28;89069;-86
2021/01/28 00:02:14;;;;;;;21.98;19.50;;;7.00;99.90;6.70;99688.00;;;;343269;28;85404;-86
2021/01/28 00:02:25;;;;;;;22.40;20.00;;;7.00;99.90;6.60;99695.00;;;;343659;28;89601;-86
2021/01/28 00:02:38;;;;;;;23.65;21.15;;;7.00;99.90;6.70;99691.00;;;;342634;28;84517;-86
2021/01/28 00:02:50;;;;;;;24.35;21.73;;;6.90;99.90;6.70;99697.00;;;;342393;28;93688;-86
2021/01/28 00:03:02;;;;;;;24.20;21.55;;;6.90;99.90;6.70;99699.00;;;;341447;28;85143;-86
2021/01/28 00:03:14;;;;;;;24.02;21.48;;;6.90;99.90;6.70;99698.00;;;;339683;28;89500;-86
2021/01/28 00:03:27;;;;;;;22.55;20.25;;;6.90;99.90;6.70;99695.00;;;;341407;28;83438;-85
2021/01/28 00:03:38;;;;;;;22.40;19.70;;;6.90;99.90;6.70;99702.00;;;;342535;28;91356;-86
2021/01/28 00:03:50;;;;;;;24.58;20.45;;;6.90;99.90;6.70;99709.00;;;;342709;28;87978;-86
2021/01/28 00:04:01;;;;;;;24.10;20.98;;;6.90;99.90;6.70;99702.00;;;;343799;28;93018;-86
2021/01/28 00:04:13;;;;;;;22.30;19.90;;;6.90;99.90;6.80;99701.00;;;;340107;28;86073;-86
2021/01/28 00:04:24;;;;;;;22.35;19.95;;;6.80;99.90;6.80;99700.00;;;;339768;28;92810;-86
2021/01/28 00:04:36;;;;;;;23.85;21.27;;;6.90;99.90;6.80;99696.00;;;;339906;28;86739;-86
2021/01/28 00:04:47;;;;;;;24.13;21.02;;;6.80;99.90;6.90;99702.00;;;;339473;28;93724;-85
2021/01/28 00:04:59;;;;;;;21.65;19.27;;;6.90;99.90;6.90;99706.00;;;;344059;28;87656;-86
2021/01/28 00:05:10;;;;;;;19.50;17.48;;;6.90;99.90;6.80;99707.00;;;;340141;28;92976;-86
2021/01/28 00:05:22;;;;;;;20.35;18.25;;;6.80;99.90;6.70;99705.00;;;;340108;28;85049;-86
2021/01/28 00:05:36;;;;;;;21.83;19.55;;;6.90;99.90;6.60;99702.00;;;;342310;28;89380;-86
2021/01/28 00:05:48;;;;;;;23.48;20.95;;;6.80;99.90;6.60;99703.00;;;;338727;28;84036;-86
2021/01/28 00:05:59;;;;;;;25.80;21.00;;;6.80;99.90;6.60;99708.00;;;;342567;28;89692;-86
2021/01/28 00:06:11;;;;;;;27.17;20.60;;;6.80;99.90;6.70;99699.00;;;;339419;28;87411;-86
2021/01/28 00:06:22;;;;;;;23.77;19.02;;;6.80;99.90;6.70;99699.00;;;;342447;28;90904;-86
2021/01/28 00:06:34;;;;;;;21.80;18.08;;;6.80;99.90;6.80;99698.00;;;;342542;28;86268;-86
2021/01/28 00:06:45;;;;;;;21.50;18.10;;;6.80;99.90;6.90;99700.00;;;;339641;28;93658;-86
2021/01/28 00:06:57;;;;;;;23.70;19.40;;;6.80;99.90;6.90;99694.00;;;;341368;28;88230;-86
2021/01/28 00:07:08;;;;;;;23.50;19.63;;;6.80;99.90;6.90;99696.00;;;;342583;28;89363;-86
2021/01/28 00:07:21;;;;;;;24.45;20.33;;;6.80;99.90;7.00;99689.00;;;;338722;28;84757;-86
2021/01/28 00:07:32;;;;;;;23.85;19.85;;;6.80;99.90;6.90;99692.00;;;;338482;28;89177;-86
2021/01/28 00:07:43;;;;;;;22.25;19.38;;;6.90;99.90;6.90;99696.00;;;;340041;28;86372;-86
2021/01/28 00:07:56;;;;;;;22.33;19.90;;;6.90;99.90;6.90;99684.00;;;;342054;28;92606;-86
2021/01/28 00:08:08;;;;;;;22.30;19.55;;;6.90;99.90;6.90;99694.00;;;;341105;28;84587;-86
2021/01/28 00:08:19;;;;;;;21.90;18.67;;;6.90;99.90;7.00;99690.00;;;;339931;28;92162;-85
2021/01/28 00:08:30;;;;;;;20.13;17.90;;;6.80;99.90;7.00;99685.00;;;;339901;28;88344;-86
2021/01/28 00:08:42;;;;;;;19.77;17.67;;;6.90;99.90;7.00;99689.00;;;;339611;28;93555;-86
2021/01/28 00:08:54;;;;;;;20.85;18.60;;;6.90;99.90;7.00;99690.00;;;;341219;28;85388;-85
2021/01/28 00:09:05;;;;;;;22.13;18.80;;;6.90;99.90;7.00;99683.00;;;;342416;28;89838;-86
2021/01/28 00:09:18;;;;;;;23.02;18.60;;;6.90;99.90;7.00;99686.00;;;;344093;28;86229;-86
2021/01/28 00:09:29;;;;;;;21.83;17.48;;;6.90;99.90;7.00;99686.00;;;;343793;28;92576;-86
2021/01/28 00:09:41;;;;;;;21.27;17.52;;;6.90;99.90;7.00;99692.00;;;;342766;28;84920;-86
2021/01/28 00:09:53;;;;;;;21.27;17.50;;;6.90;99.90;7.00;99685.00;;;;339691;28;92009;-86
2021/01/28 00:10:05;;;;;;;22.10;18.35;;;6.90;99.90;7.10;99690.00;;;;340011;28;87568;-86
2021/01/28 00:10:17;;;;;;;21.70;18.38;;;7.00;99.90;7.10;99691.00;;;;341121;28;92831;-86
2021/01/28 00:10:29;;;;;;;23.02;18.63;;;6.90;99.90;7.10;99690.00;;;;344153;28;85090;-86
2021/01/28 00:10:41;;;;;;;23.58;19.35;;;7.00;99.90;7.10;99689.00;;;;340631;28;92242;-86
2021/01/28 00:10:53;;;;;;;22.42;18.77;;;7.00;99.90;7.20;99690.00;;;;342827;28;84949;-86
2021/01/28 00:11:04;;;;;;;23.65;18.60;;;7.00;99.90;7.20;99686.00;;;;340485;28;92603;-86
2021/01/28 00:11:15;;;;;;;24.80;18.90;;;7.00;99.90;7.10;99690.00;;;;342619;28;85610;-86
2021/01/28 00:11:27;;;;;;;24.25;18.63;;;7.00;99.90;7.10;99685.00;;;;342522;28;89188;-86
2021/01/28 00:11:39;;;;;;;21.73;17.83;;;7.00;99.90;7.30;99684.00;;;;338071;28;84714;-86
2021/01/28 00:11:50;;;;;;;21.85;17.85;;;7.00;99.90;7.30;99690.00;;;;341084;28;92490;-86
2021/01/28 00:12:01;;;;;;;22.20;17.58;;;7.10;99.90;7.40;99684.00;;;;341323;28;87562;-86
2021/01/28 00:12:13;;;;;;;21.63;17.90;;;7.10;99.90;7.40;99683.00;;;;342393;28;91991;-86
2021/01/28 00:12:24;;;;;;;20.25;17.38;;;7.10;99.90;7.30;99687.00;;;;340173;28;84605;-86
2021/01/28 00:12:36;;;;;;;20.92;18.63;;;7.10;99.90;7.30;99687.00;;;;339656;28;90632;-86
2021/01/28 00:12:47;;;;;;;22.38;19.77;;;7.10;99.90;7.30;99682.00;;;;341500;28;84765;-86
2021/01/28 00:12:59;;;;;;;23.05;20.10;;;7.10;99.90;7.30;99684.00;;;;341060;28;89383;-86
2021/01/28 00:13:11;;;;;;;22.27;19.63;;;7.10;99.90;7.30;99679.00;;;;342675;28;87791;-86
2021/01/28 00:13:23;;;;;;;21.70;19.25;;;7.10;99.90;7.20;99683.00;;;;341079;28;92493;-87
2021/01/28 00:13:34;;;;;;;21.50;18.98;;;7.10;99.90;7.20;99683.00;;;;341358;28;84449;-86
2021/01/28 00:13:46;;;;;;;20.05;17.70;;;7.10;99.90;7.10;99682.00;;;;340754;28;89296;-87
2021/01/28 00:13:58;;;;;;;19.48;17.17;;;7.20;99.90;7.10;99678.00;;;;341496;28;83977;-86
2021/01/28 00:14:09;;;;;;;20.15;17.80;;;7.10;99.90;7.10;99686.00;;;;342045;28;88757;-86
2021/01/28 00:14:20;;;;;;;22.10;19.17;;;7.10;99.90;7.10;99684.00;;;;342123;28;87120;-86
2021/01/28 00:14:32;;;;;;;21.80;19.40;;;7.20;99.90;7.00;99685.00;;;;339717;28;90449;-86
2021/01/28 00:14:43;;;;;;;21.13;18.77;;;7.10;99.90;7.00;99675.00;;;;339958;28;87958;-86
2021/01/28 00:14:55;;;;;;;20.63;17.55;;;7.10;99.90;7.00;99677.00;;;;339838;28;89555;-86
2021/01/28 00:15:07;;;;;;;22.42;17.90;;;7.20;99.90;7.10;99684.00;;;;341398;28;87430;-86
2021/01/28 00:15:22;;;;;;;22.80;18.90;;;7.10;99.90;7.10;99685.00;;;;343867;28;89026;-86
2021/01/28 00:15:34;;;;;;;21.77;19.10;;;7.10;99.90;7.10;99678.00;;;;340172;28;84853;-86
2021/01/28 00:15:45;;;;;;;22.15;19.75;;;7.10;99.90;7.10;99671.00;;;;339738;28;91974;-86
2021/01/28 00:15:57;;;;;;;22.67;20.25;;;7.10;99.90;7.10;99676.00;;;;338671;28;87658;-86
2021/01/28 00:16:09;;;;;;;21.88;19.23;;;7.10;99.90;7.10;99683.00;;;;338549;28;89087;-86
2021/01/28 00:16:22;;;;;;;24.06;19.58;;;7.10;99.90;7.10;99673.00;;;;339995;28;86574;-86
2021/01/28 00:16:33;;;;;;;23.88;19.33;;;7.10;99.90;7.20;99681.00;;;;340990;28;92338;-86
2021/01/28 00:16:45;;;;;;;23.40;19.50;;;7.10;99.90;7.10;99673.00;;;;342737;28;87446;-86
2021/01/28 00:16:57;;;;;;;22.55;18.75;;;7.10;99.90;7.20;99682.00;;;;338420;28;92930;-86
2021/01/28 00:17:09;;;;;;;22.45;19.30;;;7.10;99.90;7.20;99681.00;;;;337766;28;86243;-86
2021/01/28 00:17:20;;;;;;;21.48;18.90;;;7.10;99.90;7.30;99677.00;;;;341777;28;91703;-86
2021/01/28 00:17:33;;;;;;;21.45;18.83;;;7.10;99.90;7.30;99678.00;;;;340053;28;87688;-86
2021/01/28 00:17:45;;;;;;;20.73;17.88;;;7.10;99.90;7.40;99673.00;;;;339676;28;92601;-86
2021/01/28 00:17:57;;;;;;;20.02;17.95;;;7.10;99.90;7.30;99683.00;;;;341250;28;86783;-86
2021/01/28 00:18:10;;;;;;;19.75;17.73;;;7.20;99.90;7.30;99681.00;;;;339770;28;88907;-86
2021/01/28 00:18:22;;;;;;;19.64;17.54;;;7.20;99.90;7.30;99683.00;;;;339999;28;88394;-86
2021/01/28 00:18:33;;;;;;;19.77;17.67;;;7.20;99.90;7.30;99674.00;;;;340949;28;93356;-86
2021/01/28 00:18:44;;;;;;;22.00;18.33;;;7.20;99.90;7.30;99675.00;;;;340061;28;84711;-86
2021/01/28 00:18:57;;;;;;;22.33;18.90;;;7.20;99.90;7.20;99677.00;;;;339713;28;92801;-85
2021/01/28 00:19:08;;;;;;;22.00;18.88;;;7.20;99.90;7.10;99678.00;;;;338755;28;84400;-86
2021/01/28 00:19:21;;;;;;;20.95;18.75;;;7.20;99.90;7.10;99674.00;;;;339917;28;89463;-86
2021/01/28 00:19:32;;;;;;;20.90;18.58;;;7.20;99.90;7.00;99674.00;;;;340149;28;84278;-86
2021/01/28 00:19:43;;;;;;;22.13;19.08;;;7.20;99.90;6.90;99680.00;;;;339873;28;88967;-86
2021/01/28 00:19:55;;;;;;;22.65;19.80;;;7.10;99.90;6.90;99673.00;;;;340046;28;84831;-87
2021/01/28 00:20:29;;;;;;;23.38;20.80;;;7.10;99.90;7.00;99677.00;;;;340776;28;89477;-86
2021/01/28 00:20:45;;;;;;;22.48;19.15;;;7.10;99.90;6.90;99683.00;;;;341259;28;84389;-86
2021/01/28 00:20:57;;;;;;;21.60;18.92;;;7.10;99.90;6.90;99679.00;;;;339557;28;93612;-86
2021/01/28 00:21:08;;;;;;;21.17;18.88;;;7.10;99.90;6.90;99668.00;;;;341720;28;84478;-86
2021/01/28 00:21:22;;;;;;;21.20;19.00;;;7.10;99.90;7.00;99658.00;;;;342469;28;89658;-86
2021/01/28 00:21:33;;;;;;;21.65;19.30;;;7.00;99.90;7.00;99664.00;;;;344179;28;85090;-86
2021/01/28 00:21:45;;;;;;;22.10;19.72;;;7.00;99.90;7.00;99673.00;;;;341247;28;89623;-86
2021/01/28 00:21:56;;;;;;;22.02;19.73;;;7.10;99.90;7.00;99668.00;;;;341673;28;84811;-84
2021/01/28 00:22:08;;;;;;;22.25;19.95;;;7.00;99.90;6.90;99672.00;;;;342789;28;88900;-86
2021/01/28 00:22:19;;;;;;;21.90;19.38;;;7.00;99.90;7.00;99667.00;;;;341673;28;84091;-86
2021/01/28 00:22:30;;;;;;;24.83;20.17;;;7.00;99.90;6.90;99670.00;;;;341373;28;89457;-86
2021/01/28 00:22:42;;;;;;;24.55;19.98;;;7.00;99.90;7.00;99662.00;;;;341650;28;85198;-86
2021/01/28 00:22:55;;;;;;;21.65;19.25;;;7.00;99.90;6.90;99675.00;;;;339936;28;90737;-86
2021/01/28 00:23:07;;;;;;;20.70;18.50;;;7.00;99.90;6.90;99670.00;;;;341734;28;87398;-86
2021/01/28 00:23:19;;;;;;;20.67;18.35;;;7.00;99.90;6.90;99676.00;;;;343257;28;91488;-86
2021/01/28 00:23:30;;;;;;;20.67;18.27;;;7.00;99.90;7.00;99670.00;;;;341777;28;84716;-86
2021/01/28 00:23:42;;;;;;;19.70;17.45;;;7.00;99.90;7.20;99660.00;;;;341242;28;92318;-86
2021/01/28 00:23:54;;;;;;;19.50;16.73;;;7.00;99.90;7.20;99658.00;;;;338764;28;86981;-86
2021/01/28 00:24:06;;;;;;;21.40;17.60;;;7.00;99.90;7.20;99660.00;;;;340035;28;89437;-86
2021/01/28 00:24:17;;;;;;;20.73;17.38;;;7.00;99.90;7.30;99670.00;;;;339047;28;84290;-86
2021/01/28 00:24:29;;;;;;;19.25;16.65;;;7.10;99.90;7.10;99658.00;;;;338601;28;91570;-86
2021/01/28 00:24:40;;;;;;;18.77;16.70;;;7.10;99.90;7.00;99670.00;;;;341520;28;84364;-87
2021/01/28 00:24:52;;;;;;;19.83;17.67;;;7.00;99.90;7.00;99649.00;;;;341392;28;89910;-86
2021/01/28 00:25:04;;;;;;;20.50;18.05;;;7.00;99.90;7.00;99654.00;;;;338905;28;87962;-86
2021/01/28 00:25:17;;;;;;;23.27;18.77;;;7.00;99.90;7.00;99655.00;;;;341260;28;92240;-86
2021/01/28 00:25:29;;;;;;;23.85;19.27;;;7.00;99.90;7.00;99662.00;;;;340377;28;84779;-86
2021/01/28 00:25:40;;;;;;;24.15;20.13;;;7.00;99.90;7.10;99661.00;;;;340019;28;92016;-86
2021/01/28 00:25:52;;;;;;;22.98;19.52;;;7.00;99.90;7.20;99656.00;;;;341618;28;85060;-86
2021/01/28 00:26:03;;;;;;;20.90;17.25;;;7.00;99.90;7.10;99655.00;;;;343840;28;92165;-86
2021/01/28 00:26:17;;;;;;;22.75;18.52;;;7.00;99.90;7.00;99659.00;;;;342666;28;90501;-86
2021/01/28 00:26:29;;;;;;;22.00;19.20;;;7.00;99.90;7.00;99662.00;;;;344085;28;90838;-86
2021/01/28 00:26:40;;;;;;;20.08;17.73;;;7.00;99.90;7.10;99657.00;;;;339810;28;84656;-86
2021/01/28 00:26:51;;;;;;;18.95;16.90;;;7.00;99.90;7.10;99663.00;;;;342742;28;89350;-86
2021/01/28 00:27:03;;;;;;;20.40;17.25;;;7.00;99.90;7.00;99654.00;;;;344402;28;84421;-86
2021/01/28 00:27:15;;;;;;;23.77;18.83;;;7.00;99.90;7.00;99659.00;;;;339983;28;89617;-86
2021/01/28 00:27:26;;;;;;;23.40;19.15;;;7.00;99.90;6.90;99662.00;;;;340372;28;84891;-86
2021/01/28 00:27:38;;;;;;;24.60;20.13;;;7.00;99.90;6.80;99658.00;;;;340139;28;89543;-86
2021/01/28 00:27:49;;;;;;;25.70;21.55;;;7.00;99.90;6.80;99662.00;;;;340201;28;86582;-87
2021/01/28 00:28:01;;;;;;;26.33;21.65;;;7.00;99.90;6.80;99664.00;;;;341226;28;91455;-86
2021/01/28 00:28:15;;;;;;;23.90;20.58;;;6.90;99.90;6.80;99657.00;;;;338935;28;85288;-86
2021/01/28 00:28:26;;;;;;;23.45;19.83;;;7.00;99.90;6.70;99661.00;;;;339640;28;93012;-86
2021/01/28 00:28:38;;;;;;;22.95;19.05;;;6.90;99.90;6.80;99659.00;;;;341734;28;84468;-86
2021/01/28 00:28:49;;;;;;;23.08;19.27;;;7.00;99.90;6.70;99659.00;;;;339944;28;90627;-86
2021/01/28 00:29:00;;;;;;;22.67;19.20;;;7.00;99.90;6.70;99654.00;;;;342982;28;86762;-86
2021/01/28 00:29:12;;;;;;;22.10;19.25;;;6.90;99.90;6.70;99663.00;;;;340940;28;89541;-86
2021/01/28 00:29:24;;;;;;;21.67;18.52;;;6.90;99.90;6.70;99663.00;;;;338929;28;83433;-86
2021/01/28 00:29:35;;;;;;;22.13;19.10;;;6.90;99.90;6.70;99657.00;;;;339890;28;93165;-86
2021/01/28 00:29:47;;;;;;;23.60;20.08;;;6.90;99.90;6.70;99664.00;;;;340388;28;84024;-86
2021/01/28 00:29:58;;;;;;;24.13;21.17;;;6.90;99.90;6.60;99659.00;;;;339932;28;89566;-86
2021/01/28 00:30:14;;;;;;;23.92;20.60;;;6.90;99.90;6.60;99664.00;;;;340980;28;84581;-86
2021/01/28 00:30:29;;;;;;;23.25;20.13;;;6.90;99.90;6.60;99661.00;;;;338700;28;89597;-86
2021/01/28 00:30:44;;;;;;;22.23;19.83;;;6.90;99.90;6.60;99657.00;;;;339041;28;85235;-86
2021/01/28 00:30:55;;;;;;;21.75;19.50;;;6.80;99.90;6.60;99658.00;;;;339969;28;89419;-86
2021/01/28 00:31:07;;;;;;;21.92;19.63;;;6.90;99.90;6.60;99663.00;;;;340171;28;87406;-86
2021/01/28 00:31:19;;;;;;;22.52;20.20;;;6.90;99.90;6.60;99657.00;;;;341086;28;89404;-86
2021/01/28 00:31:30;;;;;;;23.27;20.63;;;6.80;99.90;6.60;99649.00;;;;341718;28;83999;-86
2021/01/28 00:31:42;;;;;;;23.85;20.33;;;6.80;99.90;6.60;99652.00;;;;339922;28;92901;-86
2021/01/28 00:31:55;;;;;;;24.20;20.70;;;6.80;99.90;6.60;99653.00;;;;340280;28;84575;-86
2021/01/28 00:32:06;;;;;;;23.08;20.58;;;6.80;99.90;6.60;99651.00;;;;342567;28;89649;-86
2021/01/28 00:32:18;;;;;;;21.27;19.00;;;6.80;99.90;6.60;99643.00;;;;341734;28;84931;-86
2021/01/28 00:32:30;;;;;;;21.13;18.83;;;6.80;99.90;6.70;99650.00;;;;342529;28;92427;-86
2021/01/28 00:32:42;;;;;;;20.70;18.50;;;6.80;99.90;6.80;99641.00;;;;341515;28;85587;-86
2021/01/28 00:32:55;;;;;;;20.92;18.35;;;6.80;99.90;6.90;99647.00;;;;342541;28;93018;-86
2021/01/28 00:33:07;;;;;;;21.48;17.85;;;6.80;99.90;6.90;99641.00;;;;341600;28;83998;-86
2021/01/28 00:33:23;;;;;;;21.80;18.52;;;6.80;99.90;6.80;99629.00;;;;342697;28;89248;-86
2021/01/28 00:33:34;;;;;;;22.63;19.65;;;6.90;99.90;6.80;99638.00;;;;340380;28;84367;-86
2021/01/28 00:33:46;;;;;;;23.05;19.05;;;6.80;99.90;6.70;99632.00;;;;342635;28;92717;-86
2021/01/28 00:33:58;;;;;;;23.23;19.67;;;6.80;99.90;6.70;99630.00;;;;341611;28;84958;-86
2021/01/28 00:34:10;;;;;;;22.13;19.23;;;6.80;99.90;6.80;99633.00;;;;338581;28;91408;-86
2021/01/28 00:34:21;;;;;;;22.63;18.98;;;6.80;99.90;6.80;99631.00;;;;338853;28;84193;-86
2021/01/28 00:34:33;;;;;;;21.40;18.20;;;6.80;99.90;6.90;99632.00;;;;338507;28;89182;-86
2021/01/28 00:34:44;;;;;;;21.35;18.38;;;6.80;99.90;6.90;99636.00;;;;340398;28;83732;-86
2021/01/28 00:34:56;;;;;;;20.50;17.50;;;6.80;99.90;6.90;99642.00;;;;340011;28;89878;-86
2021/01/28 00:35:08;;;;;;;20.38;17.42;;;6.80;99.90;7.00;99636.00;;;;341051;28;86948;-86
2021/01/28 00:35:30;;;;;;;20.02;17.63;;;6.80;99.90;6.80;99629.00;;;;340205;28;89799;-86
2021/01/28 00:35:43;;;;;;;21.05;18.67;;;6.80;99.90;6.80;99626.00;;;;339213;28;85324;-86
2021/01/28 00:35:56;;;;;;;23.23;19.40;;;6.90;99.90;6.70;99627.00;;;;339897;28;92665;-86
2021/01/28 00:36:08;;;;;;;23.55;20.50;;;6.80;99.90;6.80;99628.00;;;;341515;28;87309;-87
2021/01/28 00:36:20;;;;;;;22.95;20.48;;;6.80;99.90;6.70;99636.00;;;;339824;28;91732;-86
2021/01/28 00:36:32;;;;;;;21.48;18.98;;;6.80;99.90;6.70;99633.00;;;;342963;28;83990;-86
2021/01/28 00:36:43;;;;;;;23.17;19.50;;;6.80;99.90;6.70;99634.00;;;;341205;28;91629;-86
2021/01/28 00:36:55;;;;;;;23.95;21.25;;;6.80;99.90;6.60;99644.00;;;;342807;28;87389;-86
2021/01/28 00:37:06;;;;;;;25.10;22.40;;;6.80;99.90;6.70;99636.00;;;;343991;28;93135;-86
2021/01/28 00:37:17;;;;;;;25.80;23.02;;;6.80;99.90;6.70;99633.00;;;;341584;28;85171;-86
2021/01/28 00:37:29;;;;;;;25.05;22.13;;;6.70;99.90;6.80;99643.00;;;;340012;28;90256;-86
2021/01/28 00:37:40;;;;;;;25.02;22.33;;;6.80;99.90;6.70;99642.00;;;;341788;28;83765;-86
2021/01/28 00:37:52;;;;;;;24.83;22.13;;;6.80;99.90;6.70;99641.00;;;;341100;28;92699;-86
2021/01/28 00:38:05;;;;;;;24.75;20.67;;;6.80;99.90;6.70;99639.00;;;;341401;28;85052;-86
2021/01/28 00:38:30;;;;;;;24.88;20.27;;;6.80;99.90;6.70;99647.00;;;;342286;28;89701;-86
2021/01/28 00:38:42;;;;;;;24.40;21.33;;;6.80;99.90;6.60;99647.00;;;;341428;28;85223;-86
2021/01/28 00:39:13;;;;;;;24.88;21.90;;;6.70;99.90;6.70;99654.00;;;;339735;28;91602;-86
2021/01/28 00:39:26;;;;;;;24.50;21.90;;;6.80;99.90;6.70;99652.00;;;;341436;28;85108;-86
2021/01/28 00:39:37;;;;;;;24.33;21.73;;;6.70;99.90;6.60;99665.00;;;;341185;28;93699;-86
2021/01/28 00:39:48;;;;;;;24.20;21.60;;;6.80;99.90;6.60;99649.00;;;;341637;28;84810;-86
2021/01/28 00:40:00;;;;;;;24.85;22.02;;;6.70;99.90;6.60;99659.00;;;;341289;28;89201;-86
2021/01/28 00:40:12;;;;;;;24.77;22.10;;;6.70;99.90;6.60;99657.00;;;;340367;28;85172;-86
2021/01/28 00:40:25;;;;;;;24.73;21.35;;;6.70;99.90;6.60;99652.00;;;;340074;28;89636;-86
2021/01/28 00:40:36;;;;;;;23.77;20.73;;;6.70;99.90;6.60;99657.00;;;;338823;28;87083;-86
2021/01/28 00:40:48;;;;;;;23.02;20.52;;;6.70;99.90;6.60;99655.00;;;;340136;28;88400;-86
2021/01/28 00:41:05;;;;;;;26.23;21.95;;;6.70;99.90;6.60;99654.00;;;;341582;28;87210;-86
2021/01/28 00:41:16;;;;;;;28.70;23.63;;;6.60;99.90;6.70;99655.00;;;;340833;28;90041;-87
2021/01/28 00:41:28;;;;;;;25.50;22.00;;;6.70;99.90;6.80;99656.00;;;;343065;28;83602;-86
2021/01/28 00:41:39;;;;;;;24.67;20.88;;;6.60;99.90;6.80;99655.00;;;;341260;28;90862;-85
2021/01/28 00:41:51;;;;;;;24.27;19.67;;;6.60;99.90;6.90;99650.00;;;;341596;28;85026;-86
2021/01/28 00:42:03;;;;;;;25.75;20.13;;;6.70;99.90;6.90;99653.00;;;;341012;28;92296;-85
2021/01/28 00:42:14;;;;;;;23.90;19.70;;;6.70;99.90;6.90;99649.00;;;;341559;28;84813;-87
2021/01/28 00:42:25;;;;;;;21.40;18.00;;;6.70;99.90;7.10;99649.00;;;;342665;28;90165;-86
2021/01/28 00:42:37;;;;;;;19.52;16.95;;;6.70;99.90;7.00;99657.00;;;;340293;28;83380;-86
2021/01/28 00:42:49;;;;;;;19.65;17.40;;;6.70;99.90;7.00;99651.00;;;;341476;28;89332;-86
2021/01/28 00:43:00;;;;;;;21.58;19.27;;;6.70;99.90;7.00;99640.00;;;;341665;28;83786;-86
2021/01/28 00:43:12;;;;;;;20.85;18.60;;;6.70;99.90;7.00;99650.00;;;;340108;28;88079;-86
2021/01/28 00:43:24;;;;;;;20.13;17.48;;;6.70;99.90;7.10;99655.00;;;;341508;28;85461;-86
2021/01/28 00:43:35;;;;;;;18.75;16.00;;;6.80;99.90;7.20;99647.00;;;;338544;28;92969;-86
2021/01/28 00:43:47;;;;;;;18.63;16.52;;;6.70;99.90;7.10;99647.00;;;;341616;28;84251;-86
2021/01/28 00:43:59;;;;;;;20.33;18.15;;;6.80;99.90;6.90;99656.00;;;;340036;28;89567;-86
2021/01/28 00:44:10;;;;;;;22.00;19.52;;;6.80;99.90;6.80;99651.00;;;;339240;28;87885;-86
2021/01/28 00:44:22;;;;;;;22.48;20.08;;;6.80;99.90;6.80;99654.00;;;;341735;28;92476;-87
2021/01/28 00:44:33;;;;;;;22.40;20.00;;;6.80;99.90;6.80;99650.00;;;;340167;28;86116;-86
2021/01/28 00:44:44;;;;;;;22.45;19.92;;;6.80;99.90;6.80;99645.00;;;;339961;28;92161;-86
2021/01/28 00:44:57;;;;;;;23.30;20.08;;;6.80;99.90;6.80;99647.00;;;;341747;28;84878;-86
2021/01/28 00:45:10;;;;;;;24.67;20.67;;;6.80;99.90;6.80;99652.00;;;;342671;28;88057;-86
2021/01/28 00:45:23;;;;;;;24.15;20.42;;;6.80;99.90;6.90;99649.00;;;;340297;28;84964;-86
2021/01/28 00:45:35;;;;;;;21.80;18.73;;;6.80;99.90;7.00;99648.00;;;;341248;28;93568;-86
2021/01/28 00:45:47;;;;;;;20.08;17.50;;;6.80;99.90;7.10;99652.00;;;;341524;28;87033;-86
2021/01/28 00:46:00;;;;;;;19.13;16.58;;;6.80;99.90;7.20;99651.00;;;;340012;28;89689;-86
2021/01/28 00:46:11;;;;;;;18.75;15.30;;;6.90;99.90;7.30;99644.00;;;;340319;28;87588;-86
2021/01/28 00:46:23;;;;;;;18.80;15.88;;;6.80;99.90;7.30;99657.00;;;;339579;28;92099;-86
2021/01/28 00:46:35;;;;;;;18.30;15.70;;;6.90;99.90;7.30;99640.00;;;;340142;28;87561;-86
2021/01/28 00:46:46;;;;;;;19.35;17.35;;;6.90;99.90;7.30;99652.00;;;;339961;28;91786;-86
2021/01/28 00:46:58;;;;;;;18.65;16.70;;;7.00;99.90;7.30;99641.00;;;;340306;28;86106;-86
2021/01/28 00:47:10;;;;;;;19.73;17.73;;;6.90;99.90;7.30;99637.00;;;;340050;28;91096;-86
2021/01/28 00:47:21;;;;;;;19.42;17.48;;;7.00;99.90;7.20;99642.00;;;;342258;28;86999;-86
2021/01/28 00:47:33;;;;;;;20.85;18.50;;;7.00;99.90;7.10;99640.00;;;;341309;28;90689;-86
2021/01/28 00:47:44;;;;;;;22.08;18.60;;;7.00;99.90;7.20;99640.00;;;;340314;28;84813;-86
2021/01/28 00:47:57;;;;;;;23.08;18.73;;;7.00;99.90;7.20;99635.00;;;;339901;28;92691;-86
2021/01/28 00:48:09;;;;;;;22.83;18.85;;;7.00;99.90;7.20;99628.00;;;;342928;28;85289;-86
2021/01/28 00:48:24;;;;;;;21.05;17.63;;;7.00;99.90;7.20;99636.00;;;;342790;28;89522;-86
2021/01/28 00:48:35;;;;;;;19.65;16.70;;;7.00;99.90;7.30;99637.00;;;;344059;28;85054;-87
2021/01/28 00:48:48;;;;;;;19.63;16.80;;;7.00;99.90;7.20;99632.00;;;;341285;28;92457;-86
2021/01/28 00:49:00;;;;;;;18.20;15.80;;;7.00;99.90;7.40;99633.00;;;;341678;28;85202;-86
2021/01/28 00:49:12;;;;;;;19.15;16.35;;;7.00;99.90;7.40;99635.00;;;;342676;28;89547;-86
2021/01/28 00:49:23;;;;;;;21.30;16.84;;;7.10;99.90;7.30;99633.00;;;;344199;28;88409;-86
2021/01/28 00:49:35;;;;;;;22.15;18.30;;;7.10;99.90;7.30;99626.00;;;;342588;28;93932;-86
2021/01/28 00:49:46;;;;;;;21.20;17.90;;;7.10;99.90;7.30;99634.00;;;;341481;28;88539;-86
2021/01/28 00:49:57;;;;;;;20.48;18.27;;;7.10;99.90;7.30;99623.00;;;;342739;28;89074;-86
2021/01/28 00:50:10;;;;;;;20.83;17.92;;;7.10;99.90;7.30;99624.00;;;;341073;28;84754;-86
2021/01/28 00:50:23;;;;;;;21.45;18.58;;;7.10;99.90;7.20;99630.00;;;;341166;28;92330;-85
2021/01/28 00:50:36;;;;;;;22.52;20.10;;;7.10;99.90;7.10;99629.00;;;;341190;28;85166;-86
2021/01/28 00:50:47;;;;;;;23.75;21.13;;;7.10;99.90;7.00;99633.00;;;;341388;28;89023;-86
2021/01/28 00:51:00;;;;;;;23.25;20.52;;;7.10;99.90;7.00;99623.00;;;;341627;28;84755;-86
2021/01/28 00:51:11;;;;;;;22.70;20.05;;;7.00;99.90;7.00;99627.00;;;;341986;28;92639;-86
2021/01/28 00:51:23;;;;;;;23.98;20.17;;;7.00;99.90;7.00;99628.00;;;;340261;28;85348;-85
2021/01/28 00:51:34;;;;;;;23.95;20.38;;;7.00;99.90;7.00;99627.00;;;;342687;28;90711;-86
2021/01/28 00:51:45;;;;;;;24.58;19.85;;;7.00;99.90;7.00;99627.00;;;;342855;28;88332;-86
2021/01/28 00:51:57;;;;;;;25.05;19.95;;;7.00;99.90;7.00;99629.00;;;;341090;28;89824;-86
2021/01/28 00:52:08;;;;;;;22.08;19.15;;;7.00;99.90;7.00;99625.00;;;;341689;28;82661;-87
2021/01/28 00:52:20;;;;;;;19.95;17.42;;;7.00;99.90;7.10;99626.00;;;;342537;28;89871;-87
2021/01/28 00:52:32;;;;;;;19.83;16.45;;;7.00;99.90;7.20;99626.00;;;;341402;28;87796;-86
2021/01/28 00:52:44;;;;;;;20.77;16.63;;;7.00;99.90;7.20;99618.00;;;;342664;28;91737;-86
2021/01/28 00:52:55;;;;;;;21.13;18.30;;;7.00;99.90;7.10;99627.00;;;;340178;28;86402;-87
2021/01/28 00:53:08;;;;;;;21.64;18.98;;;7.00;99.90;7.00;99634.00;;;;340971;28;90178;-86
2021/01/28 00:53:23;;;;;;;22.92;19.65;;;7.00;99.90;6.90;99636.00;;;;341913;28;87654;-86
2021/01/28 00:53:35;;;;;;;23.92;19.98;;;7.00;99.90;7.00;99636.00;;;;341070;28;92692;-87
2021/01/28 00:53:46;;;;;;;24.10;20.20;;;7.00;99.90;7.00;99637.00;;;;342889;28;87513;-86
2021/01/28 00:53:58;;;;;;;24.88;21.30;;;7.00;99.90;6.90;99629.00;;;;342736;28;89382;-86
2021/01/28 00:54:09;;;;;;;23.05;20.65;;;7.00;99.90;6.90;99626.00;;;;341612;28;84371;-86
2021/01/28 00:54:21;;;;;;;22.02;19.70;;;7.00;99.90;6.90;99635.00;;;;339802;28;92546;-85
2021/01/28 00:54:32;;;;;;;22.30;19.92;;;7.00;99.90;6.90;99638.00;;;;340172;28;85038;-86
2021/01/28 00:54:43;;;;;;;23.48;20.98;;;7.00;99.90;6.90;99631.00;;;;341304;28;89909;-86